<?xml version="1.0" encoding="UTF-8" standalone="no" ?>
<gpx xmlns="http://www.topografix.com/GPX/1/1" xmlns:xsi="http://www.w3.org/2001/XMLSchema-instance" xsi:schemaLocation="http://www.topografix.com/GPX/1/1 http://www.topografix.com/GPX/1/1/gpx.xsd" version="1.1" creator="VisuGPX - https://www.visugpx.com">
  <metadata>
    <name>Lac de Lessy</name>
    <desc><![CDATA[Randonnée au lac de Lessy par le chemin de Voray]]></desc>
  </metadata>
  <trk>
    <name><![CDATA[31 juil. 2011 16:02:13]]></name>
    <cmt><![CDATA[31 juil. 2011 16:02:13]]></cmt>
    <trkseg>
      <trkpt lat="45.99063" lon="6.44049">
        <ele>1713</ele>
        <time>2011-07-31T14:02:14Z</time>
      </trkpt>
      <trkpt lat="45.99096" lon="6.44083">
        <ele>1715</ele>
        <time>2011-07-31T14:02:56Z</time>
      </trkpt>
      <trkpt lat="45.99109" lon="6.44097">
        <ele>1718</ele>
        <time>2011-07-31T14:03:09Z</time>
      </trkpt>
      <trkpt lat="45.99132" lon="6.44124">
        <ele>1721</ele>
        <time>2011-07-31T14:03:40Z</time>
      </trkpt>
      <trkpt lat="45.99165" lon="6.44165">
        <ele>1721</ele>
        <time>2011-07-31T14:04:26Z</time>
      </trkpt>
      <trkpt lat="45.99186" lon="6.44198">
        <ele>1723</ele>
        <time>2011-07-31T14:05:12Z</time>
      </trkpt>
      <trkpt lat="45.99209" lon="6.44224">
        <ele>1730</ele>
        <time>2011-07-31T14:05:27Z</time>
      </trkpt>
      <trkpt lat="45.99229" lon="6.44222">
        <ele>1733</ele>
        <time>2011-07-31T14:05:46Z</time>
      </trkpt>
      <trkpt lat="45.99252" lon="6.44233">
        <ele>1738</ele>
        <time>2011-07-31T14:06:38Z</time>
      </trkpt>
      <trkpt lat="45.99277" lon="6.44249">
        <ele>1743</ele>
        <time>2011-07-31T14:07:46Z</time>
      </trkpt>
      <trkpt lat="45.99323" lon="6.4429">
        <ele>1740</ele>
        <time>2011-07-31T14:08:22Z</time>
      </trkpt>
      <trkpt lat="45.9934" lon="6.44297">
        <ele>1740</ele>
        <time>2011-07-31T14:08:35Z</time>
      </trkpt>
      <trkpt lat="45.99384" lon="6.44308">
        <ele>1751</ele>
        <time>2011-07-31T14:09:09Z</time>
      </trkpt>
      <trkpt lat="45.9941" lon="6.44313">
        <ele>1758</ele>
        <time>2011-07-31T14:09:42Z</time>
      </trkpt>
      <trkpt lat="45.99466" lon="6.44311">
        <ele>1760</ele>
        <time>2011-07-31T14:10:42Z</time>
      </trkpt>
      <trkpt lat="45.99499" lon="6.44298">
        <ele>1767</ele>
        <time>2011-07-31T14:11:21Z</time>
      </trkpt>
      <trkpt lat="45.99554" lon="6.44287">
        <ele>1776</ele>
        <time>2011-07-31T14:12:24Z</time>
      </trkpt>
      <trkpt lat="45.99575" lon="6.44286">
        <ele>1776</ele>
        <time>2011-07-31T14:12:44Z</time>
      </trkpt>
      <trkpt lat="45.99597" lon="6.44287">
        <ele>1779</ele>
        <time>2011-07-31T14:13:02Z</time>
      </trkpt>
      <trkpt lat="45.99606" lon="6.44288">
        <ele>1779</ele>
        <time>2011-07-31T14:13:29Z</time>
      </trkpt>
      <trkpt lat="45.99615" lon="6.44294">
        <ele>1785</ele>
        <time>2011-07-31T14:13:51Z</time>
      </trkpt>
      <trkpt lat="45.9964" lon="6.44285">
        <ele>1793</ele>
        <time>2011-07-31T14:14:48Z</time>
      </trkpt>
      <trkpt lat="45.99665" lon="6.44285">
        <ele>1796</ele>
        <time>2011-07-31T14:15:11Z</time>
      </trkpt>
      <trkpt lat="45.99678" lon="6.44305">
        <ele>1801</ele>
        <time>2011-07-31T14:15:32Z</time>
      </trkpt>
      <trkpt lat="45.99693" lon="6.44307">
        <ele>1801</ele>
        <time>2011-07-31T14:15:50Z</time>
      </trkpt>
      <trkpt lat="45.99707" lon="6.44298">
        <ele>1801</ele>
        <time>2011-07-31T14:16:05Z</time>
      </trkpt>
      <trkpt lat="45.99723" lon="6.44294">
        <ele>1807</ele>
        <time>2011-07-31T14:16:20Z</time>
      </trkpt>
      <trkpt lat="45.99738" lon="6.4429">
        <ele>1805</ele>
        <time>2011-07-31T14:16:35Z</time>
      </trkpt>
      <trkpt lat="45.99759" lon="6.44283">
        <ele>1805</ele>
        <time>2011-07-31T14:16:57Z</time>
      </trkpt>
      <trkpt lat="45.99785" lon="6.44277">
        <ele>1810</ele>
        <time>2011-07-31T14:17:25Z</time>
      </trkpt>
      <trkpt lat="45.99819" lon="6.44263">
        <ele>1813</ele>
        <time>2011-07-31T14:17:56Z</time>
      </trkpt>
      <trkpt lat="45.99835" lon="6.44238">
        <ele>1817</ele>
        <time>2011-07-31T14:19:04Z</time>
      </trkpt>
      <trkpt lat="45.99843" lon="6.44212">
        <ele>1817</ele>
        <time>2011-07-31T14:19:20Z</time>
      </trkpt>
      <trkpt lat="45.99851" lon="6.44191">
        <ele>1820</ele>
        <time>2011-07-31T14:19:39Z</time>
      </trkpt>
      <trkpt lat="45.9986" lon="6.4417">
        <ele>1820</ele>
        <time>2011-07-31T14:19:55Z</time>
      </trkpt>
      <trkpt lat="45.99869" lon="6.44144">
        <ele>1821</ele>
        <time>2011-07-31T14:20:15Z</time>
      </trkpt>
      <trkpt lat="45.99877" lon="6.4412">
        <ele>1819</ele>
        <time>2011-07-31T14:20:34Z</time>
      </trkpt>
      <trkpt lat="45.99883" lon="6.4407">
        <ele>1819</ele>
        <time>2011-07-31T14:21:09Z</time>
      </trkpt>
      <trkpt lat="45.99881" lon="6.44041">
        <ele>1821</ele>
        <time>2011-07-31T14:21:39Z</time>
      </trkpt>
      <trkpt lat="45.99881" lon="6.44017">
        <ele>1827</ele>
        <time>2011-07-31T14:21:57Z</time>
      </trkpt>
      <trkpt lat="45.99884" lon="6.43993">
        <ele>1828</ele>
        <time>2011-07-31T14:22:10Z</time>
      </trkpt>
      <trkpt lat="45.99891" lon="6.43971">
        <ele>1831</ele>
        <time>2011-07-31T14:22:22Z</time>
      </trkpt>
      <trkpt lat="45.99903" lon="6.43955">
        <ele>1835</ele>
        <time>2011-07-31T14:22:42Z</time>
      </trkpt>
      <trkpt lat="45.99934" lon="6.43927">
        <ele>1837</ele>
        <time>2011-07-31T14:23:22Z</time>
      </trkpt>
      <trkpt lat="45.99984" lon="6.43882">
        <ele>1840</ele>
        <time>2011-07-31T14:24:14Z</time>
      </trkpt>
      <trkpt lat="46.00044" lon="6.43877">
        <ele>1840</ele>
        <time>2011-07-31T14:24:49Z</time>
      </trkpt>
      <trkpt lat="46.0008" lon="6.43898">
        <ele>1846</ele>
        <time>2011-07-31T14:25:33Z</time>
      </trkpt>
      <trkpt lat="46.00085" lon="6.4391">
        <ele>1846</ele>
        <time>2011-07-31T14:26:02Z</time>
      </trkpt>
      <trkpt lat="46.00082" lon="6.43933">
        <ele>1850</ele>
        <time>2011-07-31T14:26:20Z</time>
      </trkpt>
      <trkpt lat="46.00095" lon="6.43969">
        <ele>1848</ele>
        <time>2011-07-31T14:26:46Z</time>
      </trkpt>
      <trkpt lat="46.00108" lon="6.43985">
        <ele>1850</ele>
        <time>2011-07-31T14:27:02Z</time>
      </trkpt>
      <trkpt lat="46.00119" lon="6.44019">
        <ele>1849</ele>
        <time>2011-07-31T14:27:38Z</time>
      </trkpt>
      <trkpt lat="46.00123" lon="6.44042">
        <ele>1850</ele>
        <time>2011-07-31T14:27:51Z</time>
      </trkpt>
      <trkpt lat="46.00134" lon="6.44064">
        <ele>1846</ele>
        <time>2011-07-31T14:28:17Z</time>
      </trkpt>
      <trkpt lat="46.00134" lon="6.44097">
        <ele>1846</ele>
        <time>2011-07-31T14:28:46Z</time>
      </trkpt>
      <trkpt lat="46.00138" lon="6.44121">
        <ele>1844</ele>
        <time>2011-07-31T14:29:04Z</time>
      </trkpt>
      <trkpt lat="46.00186" lon="6.44178">
        <ele>1839</ele>
        <time>2011-07-31T14:30:26Z</time>
      </trkpt>
      <trkpt lat="46.00203" lon="6.44193">
        <ele>1837</ele>
        <time>2011-07-31T14:30:44Z</time>
      </trkpt>
      <trkpt lat="46.00203" lon="6.4423">
        <ele>1823</ele>
        <time>2011-07-31T14:34:27Z</time>
      </trkpt>
      <trkpt lat="46.00169" lon="6.44288">
        <ele>1808</ele>
        <time>2011-07-31T14:35:37Z</time>
      </trkpt>
      <trkpt lat="46.00167" lon="6.44314">
        <ele>1803</ele>
        <time>2011-07-31T14:36:06Z</time>
      </trkpt>
      <trkpt lat="46.00173" lon="6.44364">
        <ele>1785</ele>
        <time>2011-07-31T14:36:48Z</time>
      </trkpt>
      <trkpt lat="46.00168" lon="6.44391">
        <ele>1783</ele>
        <time>2011-07-31T14:37:04Z</time>
      </trkpt>
      <trkpt lat="46.00173" lon="6.44422">
        <ele>1768</ele>
        <time>2011-07-31T14:38:13Z</time>
      </trkpt>
      <trkpt lat="46.00185" lon="6.44435">
        <ele>1763</ele>
        <time>2011-07-31T14:39:48Z</time>
      </trkpt>
      <trkpt lat="46.00212" lon="6.44385">
        <ele>1749</ele>
        <time>2011-07-31T14:40:52Z</time>
      </trkpt>
      <trkpt lat="46.00244" lon="6.44352">
        <ele>1734</ele>
        <time>2011-07-31T14:41:45Z</time>
      </trkpt>
      <trkpt lat="46.00255" lon="6.44337">
        <ele>1725</ele>
        <time>2011-07-31T14:42:16Z</time>
      </trkpt>
      <trkpt lat="46.00268" lon="6.44309">
        <ele>1720</ele>
        <time>2011-07-31T14:43:35Z</time>
      </trkpt>
      <trkpt lat="46.00314" lon="6.44289">
        <ele>1718</ele>
        <time>2011-07-31T14:45:40Z</time>
      </trkpt>
      <trkpt lat="46.00353" lon="6.44255">
        <ele>1725</ele>
        <time>2011-07-31T14:46:21Z</time>
      </trkpt>
      <trkpt lat="46.00398" lon="6.44254">
        <ele>1724</ele>
        <time>2011-07-31T14:47:39Z</time>
      </trkpt>
      <trkpt lat="46.00579" lon="6.4424">
        <ele>1641</ele>
        <time>2011-07-31T14:54:01Z</time>
      </trkpt>
      <trkpt lat="46.00597" lon="6.44283">
        <ele>1647</ele>
        <time>2011-07-31T14:54:43Z</time>
      </trkpt>
      <trkpt lat="46.00676" lon="6.44319">
        <ele>1679</ele>
        <time>2011-07-31T14:55:55Z</time>
      </trkpt>
      <trkpt lat="46.00731" lon="6.44335">
        <ele>1670</ele>
        <time>2011-07-31T14:56:15Z</time>
      </trkpt>
      <trkpt lat="46.00756" lon="6.44331">
        <ele>1669</ele>
        <time>2011-07-31T14:56:32Z</time>
      </trkpt>
      <trkpt lat="46.00772" lon="6.44315">
        <ele>1666</ele>
        <time>2011-07-31T14:56:48Z</time>
      </trkpt>
      <trkpt lat="46.00788" lon="6.44297">
        <ele>1663</ele>
        <time>2011-07-31T14:57:04Z</time>
      </trkpt>
      <trkpt lat="46.00805" lon="6.44254">
        <ele>1664</ele>
        <time>2011-07-31T14:57:30Z</time>
      </trkpt>
      <trkpt lat="46.00811" lon="6.44216">
        <ele>1662</ele>
        <time>2011-07-31T14:58:18Z</time>
      </trkpt>
      <trkpt lat="46.008" lon="6.4418">
        <ele>1662</ele>
        <time>2011-07-31T14:59:17Z</time>
      </trkpt>
      <trkpt lat="46.00793" lon="6.441">
        <ele>1656</ele>
        <time>2011-07-31T14:59:34Z</time>
      </trkpt>
      <trkpt lat="46.0075" lon="6.44049">
        <ele>1636</ele>
        <time>2011-07-31T14:59:58Z</time>
      </trkpt>
      <trkpt lat="46.00712" lon="6.44021">
        <ele>1630</ele>
        <time>2011-07-31T15:00:09Z</time>
      </trkpt>
      <trkpt lat="46.00673" lon="6.43997">
        <ele>1626</ele>
        <time>2011-07-31T15:00:24Z</time>
      </trkpt>
      <trkpt lat="46.00736" lon="6.43961">
        <ele>1635</ele>
        <time>2011-07-31T15:01:35Z</time>
      </trkpt>
      <trkpt lat="46.00756" lon="6.4389">
        <ele>1640</ele>
        <time>2011-07-31T15:02:24Z</time>
      </trkpt>
      <trkpt lat="46.00727" lon="6.43824">
        <ele>1631</ele>
        <time>2011-07-31T15:03:20Z</time>
      </trkpt>
      <trkpt lat="46.00716" lon="6.43741">
        <ele>1630</ele>
        <time>2011-07-31T15:04:16Z</time>
      </trkpt>
      <trkpt lat="46.0074" lon="6.43724">
        <ele>1621</ele>
        <time>2011-07-31T15:05:27Z</time>
      </trkpt>
      <trkpt lat="46.00775" lon="6.43727">
        <ele>1614</ele>
        <time>2011-07-31T15:05:33Z</time>
      </trkpt>
      <trkpt lat="46.00792" lon="6.43731">
        <ele>1611</ele>
        <time>2011-07-31T15:05:39Z</time>
      </trkpt>
      <trkpt lat="46.00812" lon="6.43739">
        <ele>1612</ele>
        <time>2011-07-31T15:06:06Z</time>
      </trkpt>
      <trkpt lat="46.00842" lon="6.43669">
        <ele>1579</ele>
        <time>2011-07-31T15:08:23Z</time>
      </trkpt>
      <trkpt lat="46.0086" lon="6.43617">
        <ele>1566</ele>
        <time>2011-07-31T15:09:06Z</time>
      </trkpt>
      <trkpt lat="46.00868" lon="6.43595">
        <ele>1551</ele>
        <time>2011-07-31T15:10:23Z</time>
      </trkpt>
      <trkpt lat="46.00882" lon="6.43549">
        <ele>1553</ele>
        <time>2011-07-31T15:10:49Z</time>
      </trkpt>
      <trkpt lat="46.00886" lon="6.43519">
        <ele>1552</ele>
        <time>2011-07-31T15:11:31Z</time>
      </trkpt>
      <trkpt lat="46.00898" lon="6.43494">
        <ele>1552</ele>
        <time>2011-07-31T15:11:48Z</time>
      </trkpt>
      <trkpt lat="46.00911" lon="6.43478">
        <ele>1548</ele>
        <time>2011-07-31T15:12:05Z</time>
      </trkpt>
      <trkpt lat="46.00914" lon="6.43449">
        <ele>1547</ele>
        <time>2011-07-31T15:12:30Z</time>
      </trkpt>
      <trkpt lat="46.00927" lon="6.43435">
        <ele>1545</ele>
        <time>2011-07-31T15:12:44Z</time>
      </trkpt>
      <trkpt lat="46.00945" lon="6.4343">
        <ele>1544</ele>
        <time>2011-07-31T15:13:00Z</time>
      </trkpt>
      <trkpt lat="46.00961" lon="6.43436">
        <ele>1543</ele>
        <time>2011-07-31T15:13:35Z</time>
      </trkpt>
      <trkpt lat="46.00974" lon="6.43452">
        <ele>1542</ele>
        <time>2011-07-31T15:14:00Z</time>
      </trkpt>
      <trkpt lat="46.00995" lon="6.43469">
        <ele>1542</ele>
        <time>2011-07-31T15:14:09Z</time>
      </trkpt>
      <trkpt lat="46.01014" lon="6.43476">
        <ele>1541</ele>
        <time>2011-07-31T15:14:19Z</time>
      </trkpt>
      <trkpt lat="46.01033" lon="6.43477">
        <ele>1538</ele>
        <time>2011-07-31T15:14:31Z</time>
      </trkpt>
      <trkpt lat="46.01051" lon="6.43467">
        <ele>1533</ele>
        <time>2011-07-31T15:14:55Z</time>
      </trkpt>
    </trkseg>
  </trk>
</gpx>